Latest Weather Observations for Nambour

IDQ60901

Issued at 9:35 am EST Wednesday 3 September 2014 (issued every 10 minutes, with the page automatically refreshed every 10 minutes)

About weather observations | Map of Brisbane area stations | Latest observations for Brisbane area | Other Formats
Station Details ID: 040988 Name: NAMBOUR DAFF - HILLSIDE Lat: -26.64 Lon: 152.94 Height: 53.24 m
Data from the previous 72 hours. | See also: Recent months at Nambour
Date/Time
EST
Tmp

°C
App
Tmp
°C
Dew
Point
°C
Rel
Hum
%
Delta-T

°C
Wind Press
QNH
hPa
Press
MSL
hPa
Rain
since
9 am
mm
Dir
 
Spd
km/h
Gust
km/h
Spd
kts
Gust
kts
03/09:30am 16.6 11.0 -2.5 27 7.8 W 17 44 9 24 1013.8 1013.7 0.0
03/09:00am 16.4 12.5 -1.7 29 7.5 W 9 24 5 13 1014.4 1014.3 0.0
03/08:30am 15.5 9.6 -1.1 32 6.9 W 20 33 11 18 1014.5 1014.4 0.0
03/08:00am 15.2 11.8 -0.5 34 6.6 W 7 15 4 8 1014.7 1014.6 0.0
03/07:30am 14.7 11.9 -0.2 36 6.3 SW 4 11 2 6 1014.2 1014.1 0.0
03/07:00am 13.9 11.3 0.9 41 5.6 NW 4 11 2 6 1014.1 1014.0 0.0
03/06:30am 12.6 10.1 1.3 46 4.8 W 4 9 2 5 1013.9 1013.8 0.0
03/06:00am 11.7 9.1 1.1 48 4.5 W 4 7 2 4 1013.7 1013.6 0.0
03/05:30am 13.1 9.5 0.8 43 5.2 W 9 20 5 11 1013.5 1013.4 0.0
03/05:00am 13.3 9.0 1.0 43 5.2 WSW 13 24 7 13 1013.2 1013.1 0.0
03/04:30am 13.6 9.2 0.6 41 5.5 WSW 13 24 7 13 1012.8 1012.7 0.0
03/04:00am 13.8 9.4 0.5 40 5.6 WSW 13 30 7 16 1012.7 1012.6 0.0
03/03:30am 14.1 9.3 0.4 39 5.8 WSW 15 28 8 15 1012.6 1012.5 0.0
03/03:00am 13.8 10.7 0.1 39 5.7 WSW 6 13 3 7 1012.9 1012.8 0.0
03/02:30am 14.4 10.7 -0.1 37 6.1 WSW 9 24 5 13 1013.0 1012.9 0.0
03/02:00am 14.9 10.4 -0.4 35 6.4 WSW 13 28 7 15 1013.2 1013.1 0.0
03/01:30am 14.9 11.5 -0.8 34 6.5 SW 7 20 4 11 1013.4 1013.3 0.0
03/01:00am 15.0 11.7 -1.1 33 6.7 WSW 6 17 3 9 1013.5 1013.4 0.0
03/12:30am 15.5 12.7 -0.7 33 6.8 WSW 4 11 2 6 1013.6 1013.5 0.0
03/12:00am 16.2 12.5 -0.1 33 7.0 WSW 9 24 5 13 1013.5 1013.4 0.0
 
Date/Time
EST
Tmp

°C
App
Tmp
°C
Dew
Point
°C
Rel
Hum
%
Delta-T

°C
Wind Press
QNH
hPa
Press
MSL
hPa
Rain
since
9 am
mm
Dir
 
Spd
km/h
Gust
km/h
Spd
kts
Gust
kts
02/11:30pm 16.7 11.9 -0.1 32 7.2 WSW 15 41 8 22 1013.1 1013.0 0.0
02/11:00pm 17.1 12.3 -0.1 31 7.4 WSW 15 32 8 17 1012.7 1012.6 0.0
02/10:30pm 17.6 12.4 0.3 31 7.5 WSW 17 30 9 16 1012.8 1012.7 0.0
02/10:00pm 17.8 13.9 0.9 32 7.5 W 11 24 6 13 1012.9 1012.8 0.0
02/09:30pm 18.9 13.3 1.0 30 8.0 WSW 20 39 11 21 1012.6 1012.5 0.0
02/09:00pm 19.8 15.4 0.3 27 8.7 WSW 13 32 7 17 1012.1 1012.0 0.0
02/08:30pm 20.5 15.3 0.4 26 9.0 WSW 17 35 9 19 1011.5 1011.4 0.0
02/08:00pm 21.2 16.3 2.0 28 8.9 W 17 41 9 22 1011.2 1011.1 0.0
02/07:30pm 21.8 17.4 2.5 28 9.1 WSW 15 28 8 15 1010.6 1010.4 0.0
02/07:00pm 22.4 17.9 2.0 26 9.6 W 15 30 8 16 1010.2 1010.0 0.0
02/06:30pm 22.8 19.0 1.8 25 9.9 WSW 11 22 6 12 1009.7 1009.5 0.0
02/06:00pm 23.6 20.0 0.7 22 10.6 WSW 9 20 5 11 1009.4 1009.2 0.0
02/05:30pm 24.9 20.5 0.4 20 11.4 WSW 13 28 7 15 1008.7 1008.5 0.0
02/05:00pm 25.6 23.4 5.2 27 10.4 NW 6 13 3 7 1007.7 1007.6 0.0
02/04:30pm 26.5 24.2 5.5 26 10.8 NW 7 15 4 8 1007.4 1007.3 0.0
02/04:00pm 26.8 24.4 6.8 28 10.6 NW 9 17 5 9 1007.1 1007.0 0.0
02/03:30pm 27.0 23.5 5.3 25 11.2 NNW 13 26 7 14 1007.3 1007.2 0.0
02/03:00pm 26.9 22.0 5.2 25 11.2 WNW 20 35 11 19 1007.8 1007.7 0.0
02/02:30pm 26.7 23.3 7.7 30 10.2 NNW 15 26 8 14 1008.1 1008.0 0.0
02/02:00pm 26.3 23.2 8.8 33 9.6 NW 15 26 8 14 1008.7 1008.5 0.0
02/01:30pm 25.6 22.4 9.8 37 8.7 NW 17 32 9 17 1009.3 1009.1 0.0
02/01:00pm 25.0 22.2 10.1 39 8.3 NNW 15 26 8 14 1009.9 1009.7 0.0
02/12:30pm 24.7 22.2 10.9 42 7.7 NW 15 32 8 17 1010.2 1010.0 0.0
02/12:00pm 23.6 20.8 9.9 42 7.5 NNW 15 30 8 16 1011.1 1011.0 0.0
02/11:30am 22.9 21.5 11.0 47 6.6 NNW 9 17 5 9 1011.8 1011.7 0.0
02/11:00am 22.2 19.6 10.7 48 6.3 NNW 15 28 8 15 1012.5 1012.4 0.0
02/10:30am 21.9 19.0 11.0 50 6.0 NNW 17 26 9 14 1013.1 1013.0 0.0
02/10:00am 20.7 18.8 11.9 57 4.9 NNW 13 22 7 12 1013.9 1013.8 0.0
02/09:30am 20.2 18.3 11.7 58 4.7 NW 13 26 7 14 1014.3 1014.2 0.0
02/09:00am 19.1 16.1 12.1 64 3.9 NW 19 32 10 17 1014.7 1014.6 0.0
02/08:30am 18.7 15.8 12.2 66 3.6 NW 19 28 10 15 1014.8 1014.7 0.0
02/08:00am 18.8 16.1 13.0 69 3.3 NW 19 33 10 18 1015.0 1014.9 0.0
02/07:30am 17.7 14.9 13.2 75 2.5 NW 20 35 11 19 1015.1 1015.0 0.0
02/07:00am 17.6 15.5 13.5 77 2.3 NW 17 32 9 17 1014.7 1014.6 0.0
02/06:30am 17.5 15.2 13.0 75 2.5 NNW 17 28 9 15 1014.6 1014.5 0.0
02/06:00am 17.4 15.4 12.7 74 2.6 NW 15 35 8 19 1014.8 1014.7 0.0
02/05:30am 16.9 16.5 13.0 78 2.2 N 7 17 4 9 1014.6 1014.5 0.0
02/05:00am 16.7 16.3 13.0 79 2.1 N 7 13 4 7 1014.7 1014.6 0.0
02/04:30am 17.2 16.0 13.9 81 1.9 NW 13 24 7 13 1014.8 1014.7 0.0
02/04:00am 17.0 16.2 13.9 82 1.8 NNW 11 24 6 13 1014.7 1014.6 0.0
02/03:30am 17.1 16.2 13.6 80 2.0 NNW 11 22 6 12 1014.7 1014.6 0.0
02/03:00am 16.9 16.8 13.8 82 1.8 NNW 7 13 4 7 1014.9 1014.8 0.0
02/02:30am 17.0 16.0 13.5 80 2.0 NNW 11 20 6 11 1015.1 1015.0 0.0
02/02:00am 17.1 16.2 13.6 80 2.0 NNW 11 22 6 12 1015.3 1015.2 0.0
02/01:30am 16.6 16.4 13.1 80 2.0 N 6 17 3 9 1015.8 1015.7 0.0
02/01:00am 16.8 15.7 11.9 73 2.7 NNW 9 19 5 10 1016.1 1016.0 0.0
02/12:30am 16.8 15.7 10.6 67 3.3 NNW 7 15 4 8 1016.4 1016.3 0.0
02/12:00am 17.1 15.6 10.5 65 3.5 NNW 9 17 5 9 1016.5 1016.4 0.0
 
Date/Time
EST
Tmp

°C
App
Tmp
°C
Dew
Point
°C
Rel
Hum
%
Delta-T

°C
Wind Press
QNH
hPa
Press
MSL
hPa
Rain
since
9 am
mm
Dir
 
Spd
km/h
Gust
km/h
Spd
kts
Gust
kts
01/11:30pm 15.7 14.6 10.0 69 3.0 NNW 6 15 3 8 1016.8 1016.7 0.0
01/11:00pm 16.8 15.6 9.7 63 3.7 NNW 6 15 3 8 1016.8 1016.7 0.0
01/10:30pm 17.2 15.6 10.3 64 3.7 NNW 9 17 5 9 1016.7 1016.6 0.0
01/10:00pm 14.3 14.8 11.6 84 1.4 CALM 0 4 0 2 1016.9 1016.8 0.0
01/09:30pm 15.6 16.4 12.5 82 1.7 CALM 0 0 0 0 1017.0 1016.9 0.0
01/09:00pm 15.5 16.2 12.3 81 1.7 CALM 0 0 0 0 1017.1 1017.0 0.0
01/08:30pm 17.2 17.8 13.1 77 2.3 WNW 2 4 1 2 1017.1 1017.0 0.0
01/08:00pm 17.1 18.2 13.6 80 2.0 CALM 0 0 0 0 1017.0 1016.9 0.0
01/07:30pm 17.5 18.8 14.2 81 1.9 CALM 0 0 0 0 1017.1 1017.0 0.0
01/07:00pm 18.3 19.0 14.6 79 2.1 N 4 7 2 4 1016.7 1016.6 0.0
01/06:30pm 18.9 19.3 14.8 77 2.4 N 6 9 3 5 1016.5 1016.4 0.0
01/06:00pm 19.5 20.2 14.5 73 2.9 NNE 4 9 2 5 1016.1 1016.0 0.0
01/05:30pm 20.3 21.2 14.0 67 3.6 N 2 6 1 3 1016.0 1015.9 0.0
01/05:00pm 21.5 21.2 13.2 59 4.8 NNE 7 15 4 8 1015.6 1015.5 0.0
01/04:30pm 22.4 21.4 12.4 53 5.7 NNE 9 17 5 9 1015.3 1015.2 0.0
01/04:00pm 22.9 20.7 12.2 51 6.1 NNE 15 24 8 13 1014.9 1014.8 0.0
01/03:30pm 23.5 20.5 12.5 50 6.3 E 20 28 11 15 1014.6 1014.5 0.0
01/03:00pm 25.2 22.7 6.4 30 9.8 N 9 17 5 9 1014.9 1014.8 0.0
01/02:30pm 25.4 22.9 6.6 30 9.8 N 9 17 5 9 1015.2 1015.1 0.0
01/02:00pm 25.0 23.2 7.2 32 9.4 NW 6 11 3 6 1015.7 1015.6 0.0
01/01:30pm 25.1 22.4 7.3 32 9.4 NW 11 24 6 13 1016.2 1016.1 0.0
01/01:00pm 24.9 22.4 6.6 31 9.5 N 9 17 5 9 1016.6 1016.5 0.0
01/12:30pm 25.2 21.5 4.3 26 10.4 N 13 24 7 13 1016.9 1016.8 0.0
01/12:00pm 24.5 23.0 10.4 41 7.8 NNE 9 17 5 9 1017.2 1017.1 0.0
01/11:30am 24.0 22.5 10.7 43 7.4 N 9 15 5 8 1017.7 1017.6 0.0
01/11:00am 23.8 22.5 11.2 45 7.1 N 9 15 5 8 1018.4 1018.3 0.0
01/10:30am 23.3 22.3 11.0 46 6.9 NNW 7 11 4 6 1019.2 1019.1 0.0
01/10:00am 22.3 20.9 12.3 53 5.7 NNE 11 17 6 9 1019.5 1019.4 0.0
01/09:30am 21.5 20.4 11.8 54 5.4 N 9 19 5 10 1019.8 1019.8 0.0
01/09:00am 20.3 19.5 12.8 62 4.2 N 9 15 5 8 1020.0 1020.0 0.0
01/08:30am 19.8 20.3 14.0 69 3.4 NE 4 7 2 4 1019.8 1019.8 0.0
01/08:00am 17.9 19.0 13.6 76 2.4 CALM 0 0 0 0 1019.8 1019.8 0.0
01/07:30am 16.3 17.5 13.8 85 1.4 CALM 0 0 0 0 1019.5 1019.5 0.0
01/07:00am 14.1 15.0 12.8 92 0.7 CALM 0 0 0 0 1019.1 1019.1 0.0
01/06:30am 12.7 13.4 12.2 97 0.3 CALM 0 0 0 0 1019.0 1019.0 0.0
01/06:00am 12.7 13.4 12.1 96 0.3 CALM 0 0 0 0 1018.9 1018.9 0.0
01/05:30am 13.1 13.9 12.5 96 0.3 CALM 0 0 0 0 1018.7 1018.7 0.0
01/05:00am 12.9 13.6 12.1 95 0.4 CALM 0 0 0 0 1018.3 1018.3 0.0
01/04:30am 13.6 14.5 13.0 96 0.3 CALM 0 0 0 0 1018.3 1018.3 0.0
01/04:00am 13.6 14.5 12.8 95 0.4 CALM 0 0 0 0 1018.2 1018.2 0.0
01/03:30am 14.0 15.0 13.2 95 0.4 CALM 0 0 0 0 1018.2 1018.2 0.0
01/03:00am 14.1 15.1 13.1 94 0.6 CALM 0 0 0 0 1018.2 1018.2 0.0
01/02:30am 14.3 15.3 13.3 94 0.6 CALM 0 0 0 0 1018.2 1018.2 0.0
01/02:00am 14.6 15.7 13.6 94 0.6 CALM 0 0 0 0 1018.4 1018.4 0.0
01/01:30am 14.4 15.5 13.4 94 0.6 CALM 0 0 0 0 1018.4 1018.4 0.0
01/01:00am 14.4 15.5 13.6 95 0.4 CALM 0 0 0 0 1018.6 1018.6 0.0
01/12:30am 14.8 16.1 14.0 95 0.5 CALM 0 0 0 0 1018.6 1018.6 0.0
01/12:00am 14.4 15.5 13.4 94 0.6 CALM 0 0 0 0 1018.8 1018.8 0.0
 
Date/Time
EST
Tmp

°C
App
Tmp
°C
Dew
Point
°C
Rel
Hum
%
Delta-T

°C
Wind Press
QNH
hPa
Press
MSL
hPa
Rain
since
9 am
mm
Dir
 
Spd
km/h
Gust
km/h
Spd
kts
Gust
kts
31/11:30pm 14.9 16.0 13.4 91 0.8 CALM 0 0 0 0 1018.9 1018.9 0.0
31/11:00pm 15.1 16.2 13.6 91 0.8 CALM 0 0 0 0 1018.9 1018.9 0.0
31/10:30pm 15.0 16.2 13.9 93 0.6 CALM 0 0 0 0 1019.1 1019.1 0.0
31/10:00pm 14.7 15.9 13.7 94 0.6 CALM 0 0 0 0 1019.0 1019.0 0.0
31/09:30pm 14.6 15.7 13.6 94 0.6 CALM 0 0 0 0 1019.1 1019.1 0.0
31/09:00pm 14.3 15.3 13.2 93 0.6 CALM 0 0 0 0 1018.8 1018.8 0.0
31/08:30pm 14.3 15.2 13.0 92 0.7 CALM 0 0 0 0 1018.9 1018.9 0.0
31/08:00pm 14.9 15.9 13.3 90 0.9 CALM 0 0 0 0 1018.7 1018.7 0.0
31/07:30pm 14.8 15.6 12.5 86 1.3 CALM 0 0 0 0 1018.5 1018.5 0.0
31/07:00pm 15.3 16.1 12.6 84 1.5 CALM 0 0 0 0 1018.1 1018.1 0.0
31/06:30pm 16.5 16.8 12.3 76 2.3 SW 2 4 1 2 1017.8 1017.8 0.0
31/06:00pm 17.6 18.4 12.5 72 2.8 CALM 0 0 0 0 1017.4 1017.4 0.0
31/05:30pm 18.6 18.3 12.8 69 3.3 ENE 6 9 3 5 1017.1 1017.0 0.0
31/05:00pm 19.6 18.7 12.6 64 3.9 E 9 13 5 7 1016.9 1016.8 0.0
31/04:30pm 20.3 19.5 12.8 62 4.3 E 9 13 5 7 1016.6 1016.5 0.0
31/04:00pm 21.0 20.1 12.7 59 4.7 E 9 15 5 8 1016.3 1016.2 0.0
31/03:30pm 21.2 19.5 12.6 58 4.9 E 13 19 7 10 1016.2 1016.1 0.0
31/03:00pm 21.4 20.2 12.8 58 4.9 E 11 15 6 8 1016.1 1016.0 0.0
31/02:30pm 20.6 19.8 11.8 57 4.9 E 7 13 4 7 1016.1 1016.0 0.0
31/02:00pm 21.2 19.3 11.8 55 5.3 E 13 20 7 11 1015.9 1015.8 0.0
31/01:30pm 22.7 21.0 12.3 52 5.9 ENE 13 19 7 10 1016.0 1015.9 0.0
31/01:00pm 21.6 20.5 11.9 54 5.4 ENE 9 17 5 9 1016.4 1016.3 0.0
31/12:30pm 23.7 22.7 10.4 43 7.4 E 6 13 3 7 1016.9 1016.8 0.0
31/12:00pm 22.4 21.6 9.6 44 6.9 E 4 9 2 5 1017.3 1017.2 0.0
31/11:30am 22.9 22.0 10.7 46 6.8 ESE 6 11 3 6 1017.8 1017.8 0.0
31/11:00am 22.4 21.4 10.9 48 6.4 E 7 17 4 9 1018.2 1018.2 0.0
31/10:30am 21.9 20.0 10.4 48 6.3 E 11 17 6 9 1018.6 1018.6 0.0
31/10:00am 21.7 21.2 10.8 50 6.0 ENE 4 13 2 7 1019.0 1019.0 0.0

Latest Capital City Observations: Canberra | Sydney | Melbourne | Brisbane | Adelaide | Perth | Hobart | Darwin

Other Formats:

Comma delimited format used in spreadsheet applications
http://www.bom.gov.au/fwo/IDQ60901/IDQ60901.95572.axf

JavaScript Object Notation format (JSON) in row-major order
http://www.bom.gov.au/fwo/IDQ60901/IDQ60901.95572.json